Time;durP1;ratioP1;P1;durP2;ratioP2;P2;SDS_P1;SDS_P2;PMS_P1;PMS_P2;Temp;Humidity;BMP_temperature;BMP_pressure;BME280_temperature;BME280_humidity;BME280_pressure;Samples;Min_cycle;Max_cycle;Signal;HPM_P1;HPM_P2
2021/12/02 00:00:50;;;;;;;13.43;8.57;;;4.50;98.60;;;;;;5085836;28;20103;-73
2021/12/02 00:03:16;;;;;;;18.83;10.50;;;4.40;99.10;;;;;;5086398;28;20554;-73
2021/12/02 00:05:42;;;;;;;15.25;8.93;;;4.50;99.20;;;;;;5101696;28;20031;-73
2021/12/02 00:08:08;;;;;;;18.30;10.65;;;4.40;99.30;;;;;;5087566;28;20036;-73
2021/12/02 00:10:35;;;;;;;18.20;9.80;;;4.30;99.50;;;;;;5097318;28;20474;-73
2021/12/02 00:13:02;;;;;;;16.23;9.25;;;4.30;99.80;;;;;;5105118;28;20073;-72
2021/12/02 00:15:35;;;;;;;15.10;9.05;;;4.20;99.90;;;;;;5096951;28;20036;-73
2021/12/02 00:18:30;;;;;;;18.40;9.50;;;4.20;99.90;;;;;;5086486;28;20024;-73
2021/12/02 00:21:05;;;;;;;17.85;10.32;;;4.20;99.90;;;;;;5085836;28;20039;-73
2021/12/02 00:23:49;;;;;;;16.27;9.80;;;4.10;99.90;;;;;;5092913;28;20118;-72
2021/12/02 00:26:17;;;;;;;17.77;9.50;;;4.20;99.90;;;;;;5104306;28;20031;-73
2021/12/02 00:28:44;;;;;;;14.32;9.30;;;4.20;99.90;;;;;;5105713;28;20101;-73
2021/12/02 00:31:16;;;;;;;17.17;9.30;;;4.20;99.90;;;;;;5091409;28;20074;-72
2021/12/02 00:33:54;;;;;;;15.77;9.25;;;4.20;99.90;;;;;;5091793;28;20102;-73
2021/12/02 00:36:22;;;;;;;17.55;10.48;;;4.30;99.70;;;;;;5105467;28;20471;-73
2021/12/02 00:38:48;;;;;;;15.88;8.98;;;4.40;99.60;;;;;;5096225;28;20016;-72
2021/12/02 00:41:17;;;;;;;18.13;9.73;;;4.50;99.30;;;;;;5101211;28;20038;-73
2021/12/02 00:43:44;;;;;;;15.90;9.90;;;4.60;99.00;;;;;;5101827;28;20068;-73
2021/12/02 00:46:12;;;;;;;15.88;9.45;;;4.60;98.80;;;;;;5106357;28;20873;-73
2021/12/02 00:48:39;;;;;;;18.08;9.85;;;4.60;99.40;;;;;;5098886;27;20494;-73
2021/12/02 00:51:06;;;;;;;14.82;9.27;;;4.50;99.90;;;;;;5086475;28;20031;-73
2021/12/02 00:53:33;;;;;;;19.15;9.70;;;4.40;99.90;;;;;;5086869;28;20067;-73
2021/12/02 00:56:05;;;;;;;14.30;9.32;;;4.50;99.90;;;;;;5104895;28;20038;-73
2021/12/02 00:58:32;;;;;;;14.07;9.32;;;4.60;99.90;;;;;;5105514;28;20027;-73
2021/12/02 01:00:58;;;;;;;14.07;8.63;;;4.60;99.90;;;;;;5107165;28;20062;-72
2021/12/02 01:03:34;;;;;;;14.82;9.70;;;4.60;99.90;;;;;;5105014;28;20519;-72
2021/12/02 01:06:00;;;;;;;15.57;9.63;;;4.60;99.90;;;;;;5104297;28;20023;-72
2021/12/02 01:08:27;;;;;;;16.17;9.02;;;4.50;99.90;;;;;;5101930;28;20070;-72
2021/12/02 01:10:53;;;;;;;16.73;9.75;;;4.50;99.90;;;;;;5087205;28;20034;-73
2021/12/02 01:13:20;;;;;;;15.25;9.13;;;4.50;99.90;;;;;;5086611;28;20024;-72
2021/12/02 01:15:46;;;;;;;17.58;9.77;;;4.50;99.90;;;;;;5095816;28;20034;-72
2021/12/02 01:18:12;;;;;;;16.40;10.00;;;4.40;99.90;;;;;;5105070;28;20461;-72
2021/12/02 01:20:39;;;;;;;16.35;9.05;;;4.40;99.90;;;;;;5106944;28;20031;-73
2021/12/02 01:23:07;;;;;;;17.58;10.77;;;4.40;99.90;;;;;;5104259;28;20040;-72
2021/12/02 01:25:33;;;;;;;15.80;9.82;;;4.40;99.90;;;;;;5091291;28;20024;-72
2021/12/02 01:28:00;;;;;;;17.65;10.40;;;4.30;99.90;;;;;;5105755;28;20036;-72
2021/12/02 01:30:27;;;;;;;19.33;9.88;;;4.30;99.90;;;;;;5086845;28;20059;-73
2021/12/02 01:33:00;;;;;;;20.73;10.45;;;4.40;99.90;;;;;;5086703;28;20027;-72
2021/12/02 01:35:28;;;;;;;15.98;9.77;;;4.40;99.90;;;;;;5099680;28;20046;-72
2021/12/02 01:37:54;;;;;;;18.30;10.20;;;4.20;99.90;;;;;;5085134;28;20024;-72
2021/12/02 01:40:20;;;;;;;16.77;10.10;;;4.10;99.90;;;;;;5105699;28;20107;-72
2021/12/02 01:42:50;;;;;;;19.88;11.10;;;4.20;99.90;;;;;;5093250;28;20123;-73
2021/12/02 01:45:20;;;;;;;17.15;10.60;;;4.20;99.90;;;;;;5104728;28;20096;-73
2021/12/02 01:47:49;;;;;;;17.45;9.68;;;4.30;99.90;;;;;;5085769;28;20171;-73
2021/12/02 01:50:17;;;;;;;15.50;10.48;;;4.20;99.90;;;;;;5084705;28;20012;-72
2021/12/02 01:52:45;;;;;;;18.80;11.10;;;4.20;99.90;;;;;;5086840;28;20047;-72
2021/12/02 01:55:14;;;;;;;19.33;10.35;;;4.30;99.90;;;;;;5084902;28;20538;-72
2021/12/02 01:58:01;;;;;;;20.83;10.65;;;4.30;99.90;;;;;;5086035;28;20028;-72
2021/12/02 02:00:41;;;;;;;19.20;10.68;;;4.30;99.90;;;;;;5102545;28;20398;-72
2021/12/02 02:03:08;;;;;;;18.23;10.38;;;4.30;99.90;;;;;;5104533;27;20386;-72
2021/12/02 02:05:34;;;;;;;17.55;10.32;;;4.30;99.90;;;;;;5089990;28;20039;-73
2021/12/02 02:08:04;;;;;;;15.90;10.20;;;4.30;99.90;;;;;;5111872;28;20494;-72
2021/12/02 02:10:36;;;;;;;16.33;10.07;;;4.20;99.90;;;;;;5113190;27;20023;-72
2021/12/02 02:13:09;;;;;;;17.75;10.57;;;4.10;99.90;;;;;;5100364;28;20378;-72
2021/12/02 02:15:37;;;;;;;18.00;10.75;;;4.00;99.90;;;;;;5106355;28;20028;-72
2021/12/02 02:18:09;;;;;;;19.10;10.32;;;4.00;99.90;;;;;;5092865;28;20023;-72
2021/12/02 02:20:59;;;;;;;18.60;11.00;;;4.00;99.90;;;;;;5093707;28;20016;-72
2021/12/02 02:23:28;;;;;;;17.08;11.57;;;3.80;99.90;;;;;;5095902;28;20024;-72
2021/12/02 02:25:54;;;;;;;19.10;10.38;;;3.80;99.90;;;;;;5110701;28;20024;-72
2021/12/02 02:28:19;;;;;;;19.83;11.02;;;3.60;99.90;;;;;;5113362;28;20374;-72
2021/12/02 02:30:45;;;;;;;15.68;10.75;;;3.60;99.90;;;;;;5112036;28;20062;-72
2021/12/02 02:33:12;;;;;;;16.05;11.15;;;3.60;99.90;;;;;;5115164;28;20016;-72
2021/12/02 02:35:45;;;;;;;17.02;11.52;;;3.60;99.90;;;;;;5096645;28;20036;-72
2021/12/02 02:38:11;;;;;;;22.38;11.70;;;3.60;99.90;;;;;;5114922;28;20092;-72
2021/12/02 02:40:40;;;;;;;19.77;11.95;;;3.60;99.90;;;;;;5115020;28;20474;-72
2021/12/02 02:43:08;;;;;;;17.48;12.07;;;3.60;99.90;;;;;;5094920;27;20024;-72
2021/12/02 02:45:34;;;;;;;18.23;11.82;;;3.70;99.90;;;;;;5095405;28;20024;-72
2021/12/02 02:48:00;;;;;;;21.90;12.65;;;3.70;99.90;;;;;;5094432;28;20059;-72
2021/12/02 02:50:29;;;;;;;19.48;12.43;;;3.80;99.90;;;;;;5121863;27;20485;-73
2021/12/02 02:53:04;;;;;;;18.98;11.43;;;3.70;99.90;;;;;;5127448;27;20026;-73
2021/12/02 02:55:31;;;;;;;22.15;12.10;;;3.80;99.90;;;;;;5100161;28;20482;-73
2021/12/02 02:58:15;;;;;;;16.63;10.23;;;3.90;99.90;;;;;;5094107;28;20370;-72
2021/12/02 03:01:02;;;;;;;20.58;12.20;;;3.80;99.90;;;;;;5094175;28;20050;-72
2021/12/02 03:03:45;;;;;;;18.42;11.48;;;3.90;99.90;;;;;;5104465;28;20420;-72
2021/12/02 03:08:54;;;;;;;20.45;13.13;;;3.90;99.90;;;;;;5104659;28;20080;-72
2021/12/02 03:11:21;;;;;;;22.00;13.27;;;3.90;99.90;;;;;;5093970;28;20020;-72
2021/12/02 03:13:52;;;;;;;19.45;12.75;;;3.90;99.90;;;;;;5110085;28;20138;-72
2021/12/02 03:19:04;;;;;;;20.00;12.32;;;3.90;99.90;;;;;;5111791;28;20046;-72
2021/12/02 03:21:30;;;;;;;20.05;12.07;;;3.90;99.90;;;;;;5097737;28;20028;-72
2021/12/02 03:23:58;;;;;;;18.30;11.55;;;3.80;99.90;;;;;;5093768;28;20020;-72
2021/12/02 03:26:24;;;;;;;16.38;10.60;;;3.90;99.90;;;;;;5108586;28;20042;-72
2021/12/02 03:28:51;;;;;;;17.92;12.30;;;3.80;99.90;;;;;;5100600;28;20038;-72
2021/12/02 03:31:17;;;;;;;21.15;12.35;;;3.90;99.90;;;;;;5093637;28;20496;-73
2021/12/02 03:33:44;;;;;;;18.30;11.15;;;3.60;99.90;;;;;;5108302;28;20078;-73
2021/12/02 03:36:11;;;;;;;20.20;12.65;;;3.70;99.90;;;;;;5107405;28;20057;-72
2021/12/02 03:38:37;;;;;;;20.23;11.90;;;3.70;99.90;;;;;;5105188;28;20035;-72
2021/12/02 03:41:04;;;;;;;21.77;12.80;;;3.70;99.90;;;;;;5111111;28;20023;-72
2021/12/02 03:43:37;;;;;;;21.52;13.00;;;3.70;99.90;;;;;;5113327;28;20456;-72
2021/12/02 03:46:03;;;;;;;24.83;13.30;;;3.70;99.90;;;;;;5111468;28;20048;-73
2021/12/02 03:48:29;;;;;;;19.75;12.88;;;3.70;99.90;;;;;;5108828;28;20052;-72
2021/12/02 03:50:55;;;;;;;23.33;13.52;;;3.80;99.90;;;;;;5094888;28;20032;-73
2021/12/02 03:53:21;;;;;;;20.05;12.98;;;3.70;99.90;;;;;;5113764;28;20048;-72
2021/12/02 03:55:47;;;;;;;19.65;13.43;;;3.70;99.90;;;;;;5106359;28;20036;-72
2021/12/02 03:58:12;;;;;;;22.50;14.07;;;3.70;99.90;;;;;;5093056;28;20374;-72
2021/12/02 04:00:40;;;;;;;19.20;12.20;;;3.80;99.90;;;;;;5101813;28;20382;-72
2021/12/02 04:03:05;;;;;;;24.80;13.25;;;3.70;99.90;;;;;;5097995;28;20024;-72
2021/12/02 04:05:31;;;;;;;21.58;12.13;;;3.80;99.90;;;;;;5088313;28;20028;-73
2021/12/02 04:07:57;;;;;;;18.27;11.65;;;3.60;99.90;;;;;;5103356;28;20058;-72
2021/12/02 04:10:24;;;;;;;19.30;12.05;;;3.60;99.90;;;;;;5085714;28;20298;-72
2021/12/02 04:13:19;;;;;;;18.38;11.48;;;3.60;99.90;;;;;;5083672;28;20070;-73
2021/12/02 04:15:39;;;;;;;19.17;11.95;;;3.60;99.90;;;;;;5099097;28;20031;-72
2021/12/02 04:18:05;;;;;;;20.63;11.75;;;3.70;99.90;;;;;;5102693;28;20058;-73
2021/12/02 04:20:31;;;;;;;17.55;10.30;;;3.70;99.90;;;;;;5096911;28;20039;-72
2021/12/02 04:22:58;;;;;;;18.40;11.98;;;3.80;99.90;;;;;;5095102;28;20016;-72
2021/12/02 04:25:25;;;;;;;20.15;10.98;;;3.90;99.90;;;;;;5087271;28;20036;-72
2021/12/02 04:27:52;;;;;;;20.60;11.85;;;3.80;99.90;;;;;;5105798;28;20032;-72
2021/12/02 04:30:24;;;;;;;19.38;11.50;;;3.80;99.90;;;;;;5105792;28;20073;-72
2021/12/02 04:32:50;;;;;;;20.98;12.40;;;3.80;99.90;;;;;;5095314;28;20032;-72
2021/12/02 04:35:16;;;;;;;21.17;13.07;;;3.70;99.90;;;;;;5107998;28;20107;-73
2021/12/02 04:37:45;;;;;;;19.63;12.75;;;3.80;99.90;;;;;;5088564;28;20177;-72
2021/12/02 04:40:18;;;;;;;23.02;12.90;;;3.80;99.90;;;;;;5087863;28;20077;-73
2021/12/02 04:42:45;;;;;;;20.85;12.68;;;3.80;99.90;;;;;;5095049;28;20107;-73
2021/12/02 04:45:12;;;;;;;19.80;12.07;;;3.80;99.90;;;;;;5085799;28;20024;-72
2021/12/02 04:47:38;;;;;;;20.50;12.40;;;3.70;99.90;;;;;;5087380;28;20424;-73
2021/12/02 04:50:05;;;;;;;20.30;13.60;;;3.60;99.90;;;;;;5085700;28;20095;-72
2021/12/02 04:52:31;;;;;;;23.77;12.98;;;3.60;99.90;;;;;;5085831;28;20157;-73
2021/12/02 04:54:57;;;;;;;19.95;13.13;;;3.60;99.90;;;;;;5105771;28;20102;-73
2021/12/02 04:57:23;;;;;;;20.65;13.18;;;3.60;99.90;;;;;;5103219;28;20034;-73
2021/12/02 04:59:49;;;;;;;24.15;14.30;;;3.60;99.90;;;;;;5102998;28;20027;-72
2021/12/02 05:02:14;;;;;;;22.23;14.13;;;3.70;99.90;;;;;;5099632;28;20031;-72
2021/12/02 05:04:40;;;;;;;20.35;13.63;;;3.80;99.90;;;;;;5089151;28;20538;-72
2021/12/02 05:07:06;;;;;;;21.67;13.93;;;3.70;99.90;;;;;;5093561;28;20046;-72
2021/12/02 05:09:32;;;;;;;20.10;12.68;;;3.70;99.90;;;;;;5103773;28;20036;-72
2021/12/02 05:11:58;;;;;;;17.20;11.57;;;3.70;99.90;;;;;;5094235;28;20074;-72
2021/12/02 05:14:23;;;;;;;23.25;14.10;;;3.70;99.90;;;;;;5085014;28;20024;-72
2021/12/02 05:16:49;;;;;;;21.00;12.98;;;3.60;99.90;;;;;;5091034;28;20023;-73
2021/12/02 05:19:15;;;;;;;23.27;13.60;;;3.60;99.90;;;;;;5103570;28;20031;-72
2021/12/02 05:21:41;;;;;;;20.35;13.85;;;3.60;99.90;;;;;;5097496;28;20489;-72
2021/12/02 05:24:07;;;;;;;23.20;13.73;;;3.60;99.90;;;;;;5087174;28;20099;-72
2021/12/02 05:26:33;;;;;;;22.85;13.63;;;3.60;99.90;;;;;;5102676;28;20536;-72
2021/12/02 05:28:59;;;;;;;21.30;13.93;;;3.60;99.90;;;;;;5103580;28;20031;-72
2021/12/02 05:31:24;;;;;;;23.52;15.05;;;3.60;99.90;;;;;;5099589;28;20020;-72
2021/12/02 05:33:50;;;;;;;21.83;14.10;;;3.60;99.90;;;;;;5101695;28;20073;-72
2021/12/02 05:36:16;;;;;;;22.75;13.57;;;3.50;99.90;;;;;;5089185;28;20098;-73
2021/12/02 05:38:42;;;;;;;22.25;14.60;;;3.50;99.90;;;;;;5108289;28;20060;-72
2021/12/02 05:41:08;;;;;;;26.25;14.95;;;3.40;99.90;;;;;;5102771;28;20121;-73
2021/12/02 05:43:34;;;;;;;22.13;13.38;;;3.40;99.90;;;;;;5106674;28;20031;-73
2021/12/02 05:46:00;;;;;;;22.10;14.50;;;3.50;99.90;;;;;;5097394;28;20128;-72
2021/12/02 05:48:26;;;;;;;23.58;14.57;;;3.50;99.90;;;;;;5108097;27;20067;-73
2021/12/02 05:50:52;;;;;;;23.50;14.20;;;3.50;99.90;;;;;;5105669;28;20027;-73
2021/12/02 05:53:18;;;;;;;22.27;13.60;;;3.60;99.90;;;;;;5108249;28;20028;-72
2021/12/02 05:55:44;;;;;;;21.58;13.52;;;3.60;99.90;;;;;;5099801;28;20043;-72
2021/12/02 05:58:14;;;;;;;25.42;15.43;;;3.60;99.90;;;;;;5087802;28;20029;-72
2021/12/02 06:00:41;;;;;;;22.70;13.45;;;3.60;99.90;;;;;;5096861;28;20040;-72
2021/12/02 06:03:07;;;;;;;22.48;13.80;;;3.60;99.90;;;;;;5099799;28;20389;-72
2021/12/02 06:05:33;;;;;;;21.55;14.55;;;3.60;99.90;;;;;;5105842;28;20527;-73
2021/12/02 06:08:02;;;;;;;26.38;14.65;;;3.70;99.90;;;;;;5106676;28;20389;-72
2021/12/02 06:10:29;;;;;;;25.15;15.23;;;3.70;99.90;;;;;;5101774;28;20024;-73
2021/12/02 06:12:55;;;;;;;27.77;16.25;;;3.70;99.90;;;;;;5095707;28;20026;-72
2021/12/02 06:15:21;;;;;;;26.27;15.73;;;3.70;99.90;;;;;;5105874;28;20560;-72
2021/12/02 06:17:47;;;;;;;22.48;14.38;;;3.60;99.90;;;;;;5107591;28;20137;-72
2021/12/02 06:20:15;;;;;;;22.40;14.10;;;3.60;99.90;;;;;;5103245;28;20028;-72
2021/12/02 06:22:41;;;;;;;24.73;15.55;;;3.60;99.90;;;;;;5104060;28;20016;-72
2021/12/02 06:27:42;;;;;;;26.50;16.15;;;3.60;99.90;;;;;;5107482;28;20044;-72
2021/12/02 06:30:09;;;;;;;25.60;14.43;;;3.60;99.90;;;;;;5093445;28;20032;-72
2021/12/02 06:32:35;;;;;;;24.55;15.63;;;3.60;99.90;;;;;;5090960;28;20055;-72
2021/12/02 06:35:00;;;;;;;22.55;14.07;;;3.60;99.90;;;;;;5087261;28;20130;-72
2021/12/02 06:37:26;;;;;;;26.00;14.60;;;3.60;99.90;;;;;;5087172;28;20031;-73
2021/12/02 06:39:52;;;;;;;24.60;15.77;;;3.60;99.90;;;;;;5087335;28;20024;-73
2021/12/02 06:42:18;;;;;;;28.25;15.75;;;3.50;99.90;;;;;;5105825;27;20479;-73
2021/12/02 06:44:44;;;;;;;23.65;15.25;;;3.60;99.90;;;;;;5106376;28;20706;-72
2021/12/02 06:47:10;;;;;;;23.48;15.23;;;3.60;99.90;;;;;;5085299;28;20048;-73
2021/12/02 06:49:38;;;;;;;22.02;14.27;;;3.70;99.90;;;;;;5085017;28;20103;-73
2021/12/02 06:52:09;;;;;;;24.30;14.57;;;3.70;99.90;;;;;;5087440;28;20028;-73
2021/12/02 06:54:35;;;;;;;25.88;16.25;;;3.70;99.90;;;;;;5085516;28;20027;-73
2021/12/02 06:57:01;;;;;;;25.02;14.38;;;3.70;99.90;;;;;;5098298;28;20024;-73
2021/12/02 06:59:27;;;;;;;24.70;15.65;;;3.80;99.90;;;;;;5086146;28;20425;-72
2021/12/02 07:01:52;;;;;;;25.23;15.32;;;3.70;99.90;;;;;;5085259;28;20036;-72
2021/12/02 07:04:18;;;;;;;23.23;15.02;;;3.60;99.90;;;;;;5091427;28;20111;-72
2021/12/02 07:06:44;;;;;;;24.88;15.38;;;3.60;99.90;;;;;;5094722;28;20112;-73
2021/12/02 07:09:10;;;;;;;25.02;15.95;;;3.70;99.90;;;;;;5086849;28;20959;-73
2021/12/02 07:11:36;;;;;;;26.58;14.93;;;3.70;99.90;;;;;;5091193;28;20023;-73
2021/12/02 07:14:06;;;;;;;21.38;14.25;;;3.70;99.90;;;;;;5102800;28;20050;-73
2021/12/02 07:16:36;;;;;;;23.98;15.30;;;3.80;99.90;;;;;;5085578;28;20024;-73
2021/12/02 07:19:07;;;;;;;22.50;14.00;;;3.70;99.90;;;;;;5086261;28;20471;-73
2021/12/02 07:21:37;;;;;;;21.98;13.75;;;3.70;99.90;;;;;;5086185;28;20089;-72
2021/12/02 07:24:03;;;;;;;22.67;14.45;;;3.70;99.90;;;;;;5086519;28;20189;-72
2021/12/02 07:26:33;;;;;;;24.75;15.35;;;3.70;99.90;;;;;;5102812;28;20055;-73
2021/12/02 07:28:58;;;;;;;26.55;16.30;;;3.80;99.90;;;;;;5111865;28;20031;-72
2021/12/02 07:31:29;;;;;;;29.15;14.73;;;3.80;99.90;;;;;;5105418;28;20390;-73
2021/12/02 07:33:57;;;;;;;27.85;15.75;;;3.80;99.90;;;;;;5105826;28;20114;-72
2021/12/02 07:36:24;;;;;;;24.40;14.73;;;3.90;99.90;;;;;;5092179;28;20034;-73
2021/12/02 07:38:51;;;;;;;25.92;15.90;;;3.90;99.90;;;;;;5085531;28;20039;-73
2021/12/02 07:41:17;;;;;;;22.08;14.15;;;3.90;99.90;;;;;;5099598;28;20024;-73
2021/12/02 07:43:43;;;;;;;21.98;13.95;;;3.90;99.90;;;;;;5105425;28;20089;-72
2021/12/02 07:46:09;;;;;;;23.20;15.57;;;3.90;99.90;;;;;;5105130;28;20047;-73
2021/12/02 07:48:36;;;;;;;24.55;15.18;;;3.90;99.90;;;;;;5105231;28;20036;-72
2021/12/02 07:51:13;;;;;;;25.83;15.30;;;3.90;99.90;;;;;;5104805;28;20500;-72
2021/12/02 07:53:44;;;;;;;26.35;15.80;;;4.00;99.90;;;;;;5105486;28;20032;-73
2021/12/02 07:56:13;;;;;;;25.30;15.48;;;4.10;99.90;;;;;;5105502;28;20020;-72
2021/12/02 07:58:42;;;;;;;22.92;14.20;;;4.00;99.90;;;;;;5105299;28;20993;-72
2021/12/02 08:01:09;;;;;;;26.35;17.02;;;3.90;99.90;;;;;;5101175;28;20023;-73
2021/12/02 08:03:35;;;;;;;31.83;17.38;;;3.80;99.90;;;;;;5097604;28;20389;-73
2021/12/02 08:06:02;;;;;;;22.58;14.77;;;3.90;99.90;;;;;;5084785;28;20020;-73
2021/12/02 08:08:29;;;;;;;27.90;15.63;;;3.90;99.90;;;;;;5084387;28;20043;-73
2021/12/02 08:10:56;;;;;;;24.95;16.48;;;4.00;99.90;;;;;;5083454;28;20040;-73
2021/12/02 08:13:30;;;;;;;22.23;14.23;;;3.90;99.90;;;;;;5085697;28;20516;-73
2021/12/02 08:15:56;;;;;;;29.85;15.82;;;4.00;99.90;;;;;;5105286;28;20016;-73
2021/12/02 08:18:22;;;;;;;20.95;13.35;;;4.10;99.90;;;;;;5089266;28;20360;-73
2021/12/02 08:20:48;;;;;;;23.17;14.07;;;4.10;99.90;;;;;;5084565;28;20084;-73
2021/12/02 08:23:14;;;;;;;23.85;15.48;;;4.20;99.90;;;;;;5084838;28;20032;-73
2021/12/02 08:25:40;;;;;;;26.90;14.15;;;4.10;99.90;;;;;;5084729;28;20059;-73
2021/12/02 08:28:06;;;;;;;35.17;21.30;;;4.20;99.90;;;;;;5093314;28;20362;-73
2021/12/02 08:30:34;;;;;;;32.97;19.20;;;4.10;99.90;;;;;;5092780;28;20042;-73
2021/12/02 08:33:01;;;;;;;26.08;15.95;;;4.20;99.90;;;;;;5097768;28;20043;-73
2021/12/02 08:35:28;;;;;;;28.95;16.75;;;4.20;99.90;;;;;;5104525;28;20110;-73
2021/12/02 08:38:00;;;;;;;27.10;17.48;;;4.20;99.90;;;;;;5104852;28;20019;-73
2021/12/02 08:40:31;;;;;;;36.53;20.35;;;4.30;99.90;;;;;;5101402;28;20031;-73
2021/12/02 08:43:00;;;;;;;30.45;18.73;;;4.20;99.90;;;;;;5084773;28;20077;-73
2021/12/02 08:45:26;;;;;;;27.02;17.77;;;4.40;99.90;;;;;;5098833;28;20028;-73
2021/12/02 08:47:53;;;;;;;27.45;17.33;;;4.40;99.90;;;;;;5104026;28;20047;-73
2021/12/02 08:50:21;;;;;;;27.55;16.50;;;4.50;99.90;;;;;;5104179;28;20020;-73
2021/12/02 08:52:49;;;;;;;26.55;17.60;;;4.40;99.90;;;;;;5104295;28;20103;-73
2021/12/02 08:55:16;;;;;;;31.35;18.33;;;4.40;99.90;;;;;;5105024;28;20520;-73
2021/12/02 08:57:41;;;;;;;28.77;18.08;;;4.30;99.90;;;;;;5104853;28;20085;-73
2021/12/02 09:00:10;;;;;;;24.85;17.40;;;4.30;99.90;;;;;;5103775;28;20481;-73
2021/12/02 09:02:36;;;;;;;29.80;17.65;;;4.40;99.90;;;;;;5104665;28;20118;-73
2021/12/02 09:05:04;;;;;;;27.92;16.92;;;4.40;99.90;;;;;;5104834;28;20047;-73
2021/12/02 09:07:30;;;;;;;28.50;16.33;;;4.40;99.90;;;;;;5104473;28;20118;-73
2021/12/02 09:09:56;;;;;;;30.23;18.27;;;4.40;99.90;;;;;;5093729;28;20027;-73
2021/12/02 09:12:23;;;;;;;27.83;18.65;;;4.40;99.90;;;;;;5091046;28;20028;-73
2021/12/02 09:14:49;;;;;;;32.53;21.45;;;4.50;99.90;;;;;;5084345;28;20031;-73
2021/12/02 09:17:14;;;;;;;33.85;20.02;;;4.60;99.90;;;;;;5084243;28;20036;-73
2021/12/02 09:19:40;;;;;;;28.17;16.85;;;4.60;99.90;;;;;;5083787;28;20039;-73
2021/12/02 09:22:06;;;;;;;29.17;19.40;;;4.50;99.90;;;;;;5084488;28;20020;-73
2021/12/02 09:24:32;;;;;;;26.77;18.23;;;4.50;99.90;;;;;;5082532;28;20482;-73
2021/12/02 09:26:58;;;;;;;28.92;18.92;;;4.60;99.90;;;;;;5084225;28;20036;-74
2021/12/02 09:29:24;;;;;;;28.33;18.70;;;4.60;99.90;;;;;;5084733;28;20366;-73
2021/12/02 09:31:51;;;;;;;29.25;18.02;;;4.60;99.90;;;;;;5084039;28;20024;-73
2021/12/02 09:34:17;;;;;;;29.02;18.08;;;4.70;99.90;;;;;;5084273;28;20105;-73
2021/12/02 09:36:44;;;;;;;24.20;16.40;;;4.70;99.90;;;;;;5084002;28;20074;-73
2021/12/02 09:39:11;;;;;;;27.23;18.02;;;4.70;99.90;;;;;;5083668;28;20027;-73
2021/12/02 09:41:38;;;;;;;20.20;13.35;;;4.80;99.90;;;;;;5084014;28;20105;-73
2021/12/02 09:44:04;;;;;;;30.98;19.50;;;4.80;99.90;;;;;;5090641;28;20028;-73
2021/12/02 09:46:30;;;;;;;27.23;18.77;;;4.80;99.90;;;;;;5104204;28;20057;-73
2021/12/02 09:49:00;;;;;;;30.13;19.20;;;4.60;99.90;;;;;;5104415;28;20027;-73
2021/12/02 09:51:30;;;;;;;29.25;17.73;;;4.70;99.90;;;;;;5104281;28;20027;-73
2021/12/02 09:53:59;;;;;;;31.23;18.63;;;4.60;99.90;;;;;;5100278;28;20173;-73
2021/12/02 09:56:30;;;;;;;27.55;17.77;;;4.70;99.90;;;;;;5083678;28;20107;-73
2021/12/02 09:59:02;;;;;;;26.67;18.13;;;4.90;99.90;;;;;;5083948;28;20093;-72
2021/12/02 10:01:48;;;;;;;29.70;19.33;;;5.00;99.90;;;;;;5083917;28;20031;-73
2021/12/02 10:04:13;;;;;;;27.50;18.65;;;5.00;99.90;;;;;;5099049;28;20034;-73
2021/12/02 10:06:42;;;;;;;28.85;17.38;;;5.00;99.90;;;;;;5103989;28;20027;-73
2021/12/02 10:09:13;;;;;;;27.23;16.15;;;4.90;99.90;;;;;;5104259;28;20133;-73
2021/12/02 10:11:50;;;;;;;22.75;15.45;;;4.90;99.90;;;;;;5104032;28;20023;-73
2021/12/02 10:14:38;;;;;;;23.98;15.90;;;5.00;99.90;;;;;;5104402;28;20076;-73
2021/12/02 10:20:35;;;;;;;20.73;13.25;;;5.10;99.90;;;;;;5098634;28;20039;-72
2021/12/02 10:23:35;;;;;;;21.73;12.80;;;5.20;99.90;;;;;;5104661;28;20445;-73
2021/12/02 10:26:03;;;;;;;19.50;13.18;;;5.30;99.90;;;;;;5106745;28;20046;-73
2021/12/02 10:28:42;;;;;;;18.92;12.75;;;5.30;99.90;;;;;;5107772;28;20028;-73
2021/12/02 10:31:10;;;;;;;19.20;12.75;;;5.40;99.90;;;;;;5086858;28;20035;-73
2021/12/02 10:33:35;;;;;;;19.23;11.35;;;5.30;99.90;;;;;;5086657;28;20096;-73
2021/12/02 10:36:05;;;;;;;17.85;10.65;;;5.40;99.90;;;;;;5087138;28;20107;-73
2021/12/02 10:38:41;;;;;;;20.13;11.95;;;5.30;99.90;;;;;;5086150;28;20508;-73
2021/12/02 10:41:10;;;;;;;18.42;11.57;;;5.30;99.90;;;;;;5104706;28;20038;-73
2021/12/02 10:44:11;;;;;;;21.10;12.30;;;5.30;99.90;;;;;;5106016;28;20062;-73
2021/12/02 10:46:42;;;;;;;20.48;11.85;;;5.30;99.90;;;;;;5096787;28;20413;-73
2021/12/02 10:49:15;;;;;;;20.15;13.00;;;5.30;99.90;;;;;;5104702;28;20633;-72
2021/12/02 10:51:46;;;;;;;17.67;12.55;;;5.20;99.90;;;;;;5105988;28;20035;-73
2021/12/02 10:54:15;;;;;;;20.77;13.07;;;5.30;99.90;;;;;;5107013;28;20621;-72
2021/12/02 10:56:48;;;;;;;18.05;11.18;;;5.30;99.90;;;;;;5106098;28;20027;-73
2021/12/02 10:59:43;;;;;;;20.02;11.57;;;5.30;99.90;;;;;;5106452;28;20992;-73
2021/12/02 11:02:21;;;;;;;20.05;12.20;;;5.40;99.90;;;;;;5090421;28;20024;-73
2021/12/02 11:05:30;;;;;;;20.58;13.02;;;5.50;99.90;;;;;;5086462;28;20020;-73
2021/12/02 11:07:57;;;;;;;22.77;13.05;;;5.50;99.90;;;;;;5085769;28;20089;-73
2021/12/02 11:10:25;;;;;;;18.48;12.75;;;5.40;99.90;;;;;;5086403;28;20146;-73
2021/12/02 11:12:53;;;;;;;18.58;12.85;;;5.40;99.90;;;;;;5104354;28;20062;-73
2021/12/02 11:15:24;;;;;;;18.73;12.23;;;5.40;99.90;;;;;;5105247;28;20084;-73
2021/12/02 11:18:01;;;;;;;18.33;12.75;;;5.40;99.90;;;;;;5106337;28;20028;-73
2021/12/02 11:20:35;;;;;;;19.17;12.18;;;5.40;99.90;;;;;;5106538;28;20030;-72
2021/12/02 11:23:03;;;;;;;18.35;12.23;;;5.30;99.90;;;;;;5106665;28;20020;-73
2021/12/02 11:25:29;;;;;;;18.30;11.50;;;5.40;99.90;;;;;;5104363;28;20035;-73
2021/12/02 11:27:55;;;;;;;19.05;12.27;;;5.30;99.90;;;;;;5106262;28;20032;-72
2021/12/02 11:30:28;;;;;;;15.93;10.68;;;5.30;99.90;;;;;;5106273;28;20120;-73
2021/12/02 11:33:00;;;;;;;16.60;11.10;;;5.40;99.90;;;;;;5105929;28;20031;-73
2021/12/02 11:35:34;;;;;;;19.27;11.90;;;5.40;99.90;;;;;;5105221;28;20098;-73
2021/12/02 11:38:21;;;;;;;20.73;12.00;;;5.40;99.90;;;;;;5104675;28;20600;-72
2021/12/02 11:41:02;;;;;;;19.98;12.85;;;5.40;99.90;;;;;;5106072;28;20027;-73
2021/12/02 11:43:31;;;;;;;18.33;12.30;;;5.50;99.90;;;;;;5106398;28;20493;-73
2021/12/02 11:45:59;;;;;;;24.15;14.85;;;5.50;99.90;;;;;;5098707;28;20413;-73
2021/12/02 11:48:28;;;;;;;17.30;11.32;;;5.50;99.90;;;;;;5085789;28;20060;-73
2021/12/02 11:50:57;;;;;;;20.85;12.38;;;5.60;99.90;;;;;;5085910;28;20110;-73
2021/12/02 11:53:23;;;;;;;24.85;14.90;;;5.70;99.90;;;;;;5084310;28;20056;-73
2021/12/02 11:56:01;;;;;;;20.98;12.82;;;5.80;99.90;;;;;;5085511;28;20027;-73
2021/12/02 11:58:27;;;;;;;21.48;12.73;;;5.80;99.90;;;;;;5085806;28;20036;-73
2021/12/02 12:00:55;;;;;;;21.42;12.93;;;5.70;99.90;;;;;;5085516;28;20351;-73
2021/12/02 12:03:57;;;;;;;19.30;12.02;;;5.70;99.90;;;;;;5085597;28;20020;-73
2021/12/02 12:06:28;;;;;;;21.60;12.93;;;5.70;99.90;;;;;;5079646;28;20501;-73
2021/12/02 12:08:59;;;;;;;18.58;12.23;;;5.80;99.90;;;;;;5085539;28;20849;-73
2021/12/02 12:11:29;;;;;;;19.42;12.95;;;5.80;99.90;;;;;;5104214;28;20122;-73
2021/12/02 12:14:04;;;;;;;20.73;13.23;;;5.80;99.90;;;;;;5105738;28;20024;-73
2021/12/02 12:16:38;;;;;;;26.95;14.35;;;5.80;99.90;;;;;;5105413;28;20373;-73
2021/12/02 12:19:27;;;;;;;16.85;11.27;;;5.70;99.90;;;;;;5105532;28;20043;-74
2021/12/02 12:22:00;;;;;;;18.92;11.88;;;5.70;99.90;;;;;;5084775;28;20055;-74
2021/12/02 12:24:49;;;;;;;20.88;12.50;;;5.70;99.90;;;;;;5099991;28;20084;-72
2021/12/02 12:27:32;;;;;;;20.90;13.15;;;5.80;99.90;;;;;;5107914;28;20390;-73
2021/12/02 12:30:05;;;;;;;20.50;13.90;;;5.70;99.90;;;;;;5107667;28;20103;-74
2021/12/02 12:32:42;;;;;;;19.40;12.93;;;5.80;99.90;;;;;;5105330;28;20601;-73
2021/12/02 12:35:21;;;;;;;22.67;13.98;;;5.80;99.90;;;;;;5085964;28;20519;-74
2021/12/02 12:37:49;;;;;;;20.27;13.68;;;5.90;99.90;;;;;;5104424;28;20035;-74
2021/12/02 12:40:21;;;;;;;17.98;12.02;;;5.80;99.90;;;;;;5104950;28;20544;-74
2021/12/02 12:42:49;;;;;;;24.05;14.32;;;5.80;99.90;;;;;;5104532;28;20032;-74
2021/12/02 12:45:36;;;;;;;21.30;13.10;;;5.80;99.90;;;;;;5094321;28;20023;-74
2021/12/02 12:48:05;;;;;;;18.88;13.63;;;5.80;99.90;;;;;;5085257;28;20502;-74
2021/12/02 12:50:35;;;;;;;23.45;13.73;;;5.80;99.90;;;;;;5104447;28;20127;-75
2021/12/02 12:53:05;;;;;;;21.83;14.60;;;5.80;99.90;;;;;;5103390;28;20032;-74
2021/12/02 12:55:32;;;;;;;19.27;14.00;;;5.90;99.90;;;;;;5104417;28;20019;-74
2021/12/02 12:58:14;;;;;;;28.70;14.65;;;6.00;99.90;;;;;;5104317;28;20023;-74
2021/12/02 13:00:44;;;;;;;23.30;14.45;;;6.00;99.90;;;;;;5103928;28;20078;-75